createdAt,value
2023-02-19T00:01:14.472Z,53.90
2023-02-19T00:06:09.464Z,53.71
2023-02-19T00:11:11.622Z,53.46
2023-02-19T00:16:18.966Z,53.77
2023-02-19T00:21:12.598Z,54.14
2023-02-19T00:26:18.499Z,54.23
2023-02-19T00:31:34.115Z,54.38
2023-02-19T00:36:28.436Z,54.43
2023-02-19T00:41:24.136Z,54.30
2023-02-19T00:46:29.276Z,54.21
2023-02-19T00:51:24.681Z,54.25
2023-02-19T00:56:19.369Z,54.38
2023-02-19T01:01:12.603Z,54.36
2023-02-19T01:06:07.921Z,54.37
2023-02-19T01:11:02.786Z,53.15
2023-02-19T01:16:03.278Z,53.40
2023-02-19T01:20:56.201Z,53.25
2023-02-19T01:25:49.169Z,52.89
2023-02-19T01:30:41.764Z,53.01
2023-02-19T01:35:37.977Z,52.94
2023-02-19T01:40:31.033Z,52.98
2023-02-19T01:45:30.287Z,53.12
2023-02-19T01:50:24.275Z,52.89
2023-02-19T01:55:17.194Z,52.83
2023-02-19T02:00:15.927Z,52.87
2023-02-19T02:05:16.494Z,52.80
2023-02-19T02:10:22.315Z,52.71
2023-02-19T02:15:16.885Z,52.51
2023-02-19T02:20:15.326Z,52.39
2023-02-19T02:25:29.363Z,52.45
2023-02-19T02:30:54.437Z,52.87
2023-02-19T02:35:55.717Z,52.54
2023-02-19T02:40:49.290Z,52.51
2023-02-19T02:45:42.632Z,52.54
2023-02-19T02:50:51.331Z,52.82
2023-02-19T02:55:45.838Z,53.00
2023-02-19T03:01:00.038Z,52.91
2023-02-19T03:05:58.282Z,52.88
2023-02-19T03:11:30.604Z,53.05
2023-02-19T03:16:47.278Z,52.95
2023-02-19T03:21:43.002Z,53.04
2023-02-19T03:26:39.549Z,52.90
2023-02-19T03:31:34.940Z,52.90
2023-02-19T03:36:35.369Z,52.75
2023-02-19T03:41:37.478Z,53.04
2023-02-19T03:46:48.320Z,52.65
2023-02-19T03:51:51.701Z,52.81
2023-02-19T03:56:57.181Z,52.78
2023-02-19T04:01:56.215Z,52.69
2023-02-19T04:06:54.136Z,52.65
2023-02-19T04:11:49.512Z,52.63
2023-02-19T04:16:46.006Z,52.60
2023-02-19T04:21:41.959Z,52.44
2023-02-19T04:26:35.770Z,52.35
2023-02-19T04:31:32.236Z,52.24
2023-02-19T04:36:26.614Z,52.09
2023-02-19T04:41:20.283Z,51.97
2023-02-19T04:46:13.327Z,51.96
2023-02-19T04:51:07.666Z,51.90
2023-02-19T04:56:13.222Z,51.79
2023-02-19T05:01:07.496Z,51.64
2023-02-19T05:06:03.411Z,51.70
2023-02-19T05:10:59.924Z,51.38
2023-02-19T05:16:00.755Z,51.65
2023-02-19T05:20:54.443Z,51.37
2023-02-19T05:25:51.189Z,51.36
2023-02-19T05:30:51.896Z,51.23
2023-02-19T05:35:49.387Z,51.28
2023-02-19T05:40:42.145Z,51.17
2023-02-19T05:45:35.820Z,51.33
2023-02-19T05:50:29.177Z,51.08
2023-02-19T05:55:22.328Z,51.13
2023-02-19T06:00:18.305Z,50.88
2023-02-19T06:05:12.116Z,51.11
2023-02-19T06:10:05.578Z,51.16
2023-02-19T06:14:58.841Z,51.30
2023-02-19T06:19:52.393Z,51.62
2023-02-19T06:24:45.808Z,47.95
2023-02-19T06:29:38.853Z,49.82
2023-02-19T06:34:31.814Z,50.04
2023-02-19T06:39:24.829Z,49.86
2023-02-19T06:44:19.248Z,49.82
2023-02-19T06:49:11.737Z,49.78
2023-02-19T06:54:04.622Z,49.93
2023-02-19T06:59:03.049Z,50.60
2023-02-19T07:03:56.530Z,50.50
2023-02-19T07:08:50.717Z,50.81
2023-02-19T07:13:45.044Z,50.48
2023-02-19T07:18:38.734Z,50.57
2023-02-19T07:23:31.544Z,50.36
2023-02-19T07:28:25.150Z,50.32
2023-02-19T07:33:18.254Z,50.22
2023-02-19T07:38:11.223Z,50.09
2023-02-19T07:43:04.886Z,50.04
2023-02-19T07:47:58.357Z,50.06
2023-02-19T07:52:51.285Z,49.96
2023-02-19T07:57:45.602Z,49.96
2023-02-19T08:02:57.125Z,49.98
2023-02-19T08:07:49.274Z,50.12
2023-02-19T08:13:01.094Z,50.22
2023-02-19T08:17:54.299Z,50.17
2023-02-19T08:22:47.428Z,50.08
2023-02-19T08:27:41.049Z,50.33
2023-02-19T08:32:35.865Z,50.45
2023-02-19T08:37:28.891Z,50.35
2023-02-19T08:42:22.280Z,50.33
2023-02-19T08:47:15.119Z,50.20
2023-02-19T08:52:08.571Z,50.29
2023-02-19T08:57:01.415Z,50.23
2023-02-19T09:01:55.110Z,50.24
2023-02-19T09:06:48.292Z,50.21
2023-02-19T09:11:41.277Z,50.42
2023-02-19T09:16:35.733Z,50.21
2023-02-19T09:21:29.514Z,50.49
2023-02-19T09:26:23.597Z,50.40
2023-02-19T09:31:17.414Z,50.30
2023-02-19T09:36:10.854Z,50.29
2023-02-19T09:41:36.463Z,50.14
2023-02-19T09:46:35.017Z,50.28
2023-02-19T09:51:33.994Z,50.23
2023-02-19T09:56:27.103Z,50.95
2023-02-19T10:01:40.024Z,51.64
2023-02-19T10:06:33.637Z,51.76
2023-02-19T10:11:28.144Z,51.83
2023-02-19T10:16:27.344Z,51.74
2023-02-19T10:21:23.253Z,51.68
2023-02-19T10:26:16.629Z,51.73
2023-02-19T10:31:24.102Z,51.47
2023-02-19T10:36:23.851Z,51.71
2023-02-19T10:41:23.184Z,51.37
2023-02-19T10:46:22.297Z,51.43
2023-02-19T10:51:22.551Z,51.31
2023-02-19T10:56:26.757Z,51.29
2023-02-19T11:01:21.378Z,51.16
2023-02-19T11:06:17.630Z,50.92
2023-02-19T11:11:11.570Z,50.85
2023-02-19T11:16:05.876Z,50.36
2023-02-19T11:21:01.811Z,50.68
2023-02-19T11:25:56.906Z,50.70
2023-02-19T11:30:49.182Z,50.73
2023-02-19T11:35:42.546Z,50.72
2023-02-19T11:40:45.787Z,50.52
2023-02-19T11:46:00.660Z,50.65
2023-02-19T11:51:10.415Z,50.37
2023-02-19T11:56:09.647Z,50.56
2023-02-19T12:01:25.668Z,50.67
2023-02-19T12:06:29.614Z,50.52
2023-02-19T12:11:37.677Z,50.26
2023-02-19T12:16:46.321Z,50.47
2023-02-19T12:22:36.512Z,50.32
2023-02-19T12:27:42.382Z,50.29
2023-02-19T12:32:37.675Z,50.23
2023-02-19T12:37:52.868Z,50.33
2023-02-19T12:43:22.253Z,50.24
2023-02-19T12:48:21.367Z,50.08
2023-02-19T12:53:46.408Z,50.09
2023-02-19T12:59:04.991Z,50.16
2023-02-19T13:04:09.028Z,50.26
2023-02-19T13:09:20.174Z,50.14
2023-02-19T13:14:21.447Z,50.22
2023-02-19T13:19:15.352Z,50.23
2023-02-19T13:24:12.560Z,50.32
2023-02-19T13:29:25.306Z,50.46
2023-02-19T13:35:00.583Z,50.63
2023-02-19T13:39:56.807Z,50.74
2023-02-19T13:44:54.119Z,50.93
2023-02-19T13:49:50.183Z,50.97
2023-02-19T13:54:44.017Z,50.92
2023-02-19T13:59:39.211Z,50.87
2023-02-19T14:04:53.233Z,51.02
2023-02-19T14:09:47.544Z,50.99
2023-02-19T14:14:53.811Z,50.84
2023-02-19T14:19:50.574Z,51.25
2023-02-19T14:24:44.729Z,50.86
2023-02-19T14:29:38.812Z,50.98
2023-02-19T14:34:32.429Z,50.85
2023-02-19T14:39:33.567Z,50.99
2023-02-19T14:44:30.115Z,51.36
2023-02-19T14:49:28.950Z,50.95
2023-02-19T14:54:48.404Z,51.17
2023-02-19T14:59:51.929Z,51.30
2023-02-19T15:04:45.982Z,51.34
2023-02-19T15:09:43.865Z,51.48
2023-02-19T15:14:36.291Z,51.38
2023-02-19T15:19:33.570Z,51.54
2023-02-19T15:24:26.796Z,51.28
2023-02-19T15:29:24.124Z,51.17
2023-02-19T15:34:20.192Z,51.49
2023-02-19T15:39:20.759Z,51.36
2023-02-19T15:44:33.929Z,51.29
2023-02-19T15:49:38.277Z,51.86
2023-02-19T15:54:56.568Z,51.42
2023-02-19T15:59:58.480Z,51.19
2023-02-19T16:04:50.481Z,51.57
2023-02-19T16:09:43.472Z,51.71
2023-02-19T16:14:37.272Z,51.98
2023-02-19T16:19:32.589Z,51.95
2023-02-19T16:24:50.675Z,52.04
2023-02-19T16:29:51.883Z,51.96
2023-02-19T16:34:48.162Z,52.22
2023-02-19T16:39:42.045Z,52.35
2023-02-19T16:44:39.221Z,52.38
2023-02-19T16:49:50.359Z,52.07
2023-02-19T16:54:43.333Z,51.92
2023-02-19T16:59:35.718Z,52.00
2023-02-19T17:04:29.001Z,52.04
2023-02-19T17:09:22.805Z,51.52
2023-02-19T17:14:15.735Z,51.85
2023-02-19T17:19:35.665Z,52.34
2023-02-19T17:24:28.590Z,52.13
2023-02-19T17:29:21.450Z,51.98
2023-02-19T17:34:14.688Z,52.01
2023-02-19T17:39:09.852Z,51.67
2023-02-19T17:44:03.477Z,51.86
2023-02-19T17:48:56.843Z,51.94
2023-02-19T17:53:49.791Z,51.62
2023-02-19T17:58:42.853Z,51.68
2023-02-19T18:03:35.992Z,51.60
2023-02-19T18:08:30.199Z,46.04
2023-02-19T18:13:24.864Z,51.19
2023-02-19T18:18:18.141Z,51.35
2023-02-19T18:23:11.662Z,51.47
2023-02-19T18:28:05.590Z,51.58
2023-02-19T18:32:58.269Z,51.59
2023-02-19T18:37:54.384Z,51.88
2023-02-19T18:42:46.208Z,50.53
2023-02-19T18:47:39.781Z,50.83
2023-02-19T18:52:33.015Z,50.44
2023-02-19T18:57:26.318Z,50.96
2023-02-19T19:02:20.655Z,50.91
2023-02-19T19:07:15.465Z,51.26
2023-02-19T19:12:08.853Z,51.23
2023-02-19T19:17:02.742Z,51.57
2023-02-19T19:21:56.178Z,51.61
2023-02-19T19:26:50.993Z,52.00
2023-02-19T19:31:44.807Z,52.09
2023-02-19T19:36:39.009Z,51.88
2023-02-19T19:41:32.742Z,52.36
2023-02-19T19:46:26.068Z,52.07
2023-02-19T19:51:19.964Z,51.82
2023-02-19T19:56:13.178Z,52.04
2023-02-19T20:01:07.348Z,52.13
2023-02-19T20:06:00.251Z,52.19
2023-02-19T20:10:52.531Z,52.06
2023-02-19T20:15:49.291Z,52.11
2023-02-19T20:20:41.858Z,52.03
2023-02-19T20:25:34.980Z,52.20
2023-02-19T20:30:28.563Z,52.11
2023-02-19T20:35:22.258Z,52.31
2023-02-19T20:40:18.311Z,52.02
2023-02-19T20:45:11.641Z,52.28
2023-02-19T20:50:04.786Z,52.28
2023-02-19T20:54:58.219Z,52.46
2023-02-19T20:59:51.646Z,52.35
2023-02-19T21:04:44.162Z,52.13
2023-02-19T21:09:37.132Z,52.09
2023-02-19T21:14:29.558Z,52.15
2023-02-19T21:19:22.416Z,52.04
2023-02-19T21:24:16.935Z,52.08
2023-02-19T21:29:14.676Z,51.96
2023-02-19T21:34:27.917Z,52.05
2023-02-19T21:39:22.693Z,52.00
2023-02-19T21:44:15.458Z,51.64
2023-02-19T21:49:07.690Z,51.75
2023-02-19T21:54:00.257Z,51.67
2023-02-19T21:58:53.391Z,51.64
2023-02-19T22:03:46.859Z,51.75
2023-02-19T22:08:39.847Z,51.65
2023-02-19T22:13:32.990Z,51.54
2023-02-19T22:18:26.238Z,51.54
2023-02-19T22:23:19.553Z,51.77
2023-02-19T22:28:11.846Z,51.61
2023-02-19T22:33:04.246Z,51.58
2023-02-19T22:37:57.848Z,51.45
2023-02-19T22:42:50.998Z,51.45
2023-02-19T22:47:44.917Z,51.34
2023-02-19T22:52:41.671Z,51.24
2023-02-19T22:57:35.332Z,51.40
2023-02-19T23:02:28.494Z,51.35
2023-02-19T23:07:21.200Z,51.40
2023-02-19T23:12:14.589Z,51.52
2023-02-19T23:17:08.240Z,51.45
2023-02-19T23:22:01.685Z,51.61
2023-02-19T23:26:55.221Z,51.60
2023-02-19T23:31:48.143Z,51.53
2023-02-19T23:36:45.189Z,51.53
2023-02-19T23:41:38.973Z,51.46
2023-02-19T23:46:34.417Z,51.65
2023-02-19T23:51:28.001Z,51.50
2023-02-19T23:56:29.060Z,51.56
